sensor_id;sensor_type;location;lat;lon;timestamp;P1;durP1;ratioP1;P2;durP2;ratioP2
68947;SDS011;55996;49.546;7.400;2024-01-30T00:01:11;14.63;;;11.00;;
68947;SDS011;55996;49.546;7.400;2024-01-30T00:03:36;14.60;;;11.30;;
68947;SDS011;55996;49.546;7.400;2024-01-30T00:06:05;16.63;;;12.30;;
68947;SDS011;55996;49.546;7.400;2024-01-30T00:08:30;16.47;;;11.53;;
68947;SDS011;55996;49.546;7.400;2024-01-30T00:10:56;15.60;;;11.90;;
68947;SDS011;55996;49.546;7.400;2024-01-30T00:13:21;17.33;;;12.43;;
68947;SDS011;55996;49.546;7.400;2024-01-30T00:15:47;13.97;;;12.03;;
68947;SDS011;55996;49.546;7.400;2024-01-30T00:18:13;14.77;;;11.80;;
68947;SDS011;55996;49.546;7.400;2024-01-30T00:20:39;17.50;;;12.53;;
68947;SDS011;55996;49.546;7.400;2024-01-30T00:23:04;17.10;;;11.97;;
68947;SDS011;55996;49.546;7.400;2024-01-30T00:25:29;15.93;;;11.33;;
68947;SDS011;55996;49.546;7.400;2024-01-30T00:27:56;16.53;;;12.60;;
68947;SDS011;55996;49.546;7.400;2024-01-30T00:30:21;18.33;;;13.07;;
68947;SDS011;55996;49.546;7.400;2024-01-30T00:32:46;16.80;;;11.37;;
68947;SDS011;55996;49.546;7.400;2024-01-30T00:35:12;15.40;;;12.20;;
68947;SDS011;55996;49.546;7.400;2024-01-30T00:37:37;17.40;;;12.50;;
68947;SDS011;55996;49.546;7.400;2024-01-30T00:40:03;16.77;;;12.57;;
68947;SDS011;55996;49.546;7.400;2024-01-30T00:42:29;15.47;;;12.13;;
68947;SDS011;55996;49.546;7.400;2024-01-30T00:44:54;17.63;;;13.23;;
68947;SDS011;55996;49.546;7.400;2024-01-30T00:47:19;13.97;;;11.70;;
68947;SDS011;55996;49.546;7.400;2024-01-30T00:49:45;16.27;;;12.40;;
68947;SDS011;55996;49.546;7.400;2024-01-30T00:52:10;14.83;;;12.17;;
68947;SDS011;55996;49.546;7.400;2024-01-30T00:54:36;18.83;;;13.20;;
68947;SDS011;55996;49.546;7.400;2024-01-30T00:57:02;19.20;;;13.43;;
68947;SDS011;55996;49.546;7.400;2024-01-30T00:59:27;15.93;;;12.03;;
68947;SDS011;55996;49.546;7.400;2024-01-30T01:01:53;14.67;;;11.53;;
68947;SDS011;55996;49.546;7.400;2024-01-30T01:04:18;15.33;;;11.47;;
68947;SDS011;55996;49.546;7.400;2024-01-30T01:06:44;17.07;;;12.33;;
68947;SDS011;55996;49.546;7.400;2024-01-30T01:09:10;17.10;;;12.13;;
68947;SDS011;55996;49.546;7.400;2024-01-30T01:11:36;18.30;;;12.53;;
68947;SDS011;55996;49.546;7.400;2024-01-30T01:14:03;17.53;;;12.43;;
68947;SDS011;55996;49.546;7.400;2024-01-30T01:16:28;16.63;;;12.60;;
68947;SDS011;55996;49.546;7.400;2024-01-30T01:18:54;17.77;;;12.37;;
68947;SDS011;55996;49.546;7.400;2024-01-30T01:21:20;16.97;;;13.00;;
68947;SDS011;55996;49.546;7.400;2024-01-30T01:23:45;16.70;;;12.30;;
68947;SDS011;55996;49.546;7.400;2024-01-30T01:26:10;14.77;;;12.20;;
68947;SDS011;55996;49.546;7.400;2024-01-30T01:28:36;16.87;;;12.93;;
68947;SDS011;55996;49.546;7.400;2024-01-30T01:31:01;15.87;;;12.20;;
68947;SDS011;55996;49.546;7.400;2024-01-30T01:33:32;20.87;;;13.43;;
68947;SDS011;55996;49.546;7.400;2024-01-30T01:35:58;19.47;;;12.93;;
68947;SDS011;55996;49.546;7.400;2024-01-30T01:38:24;20.23;;;12.53;;
68947;SDS011;55996;49.546;7.400;2024-01-30T01:40:50;19.50;;;12.37;;
68947;SDS011;55996;49.546;7.400;2024-01-30T01:43:16;18.47;;;13.67;;
68947;SDS011;55996;49.546;7.400;2024-01-30T01:45:41;17.00;;;12.47;;
68947;SDS011;55996;49.546;7.400;2024-01-30T01:48:07;17.67;;;12.23;;
68947;SDS011;55996;49.546;7.400;2024-01-30T01:50:33;16.80;;;12.27;;
68947;SDS011;55996;49.546;7.400;2024-01-30T01:52:58;14.00;;;11.83;;
68947;SDS011;55996;49.546;7.400;2024-01-30T01:55:24;14.87;;;11.63;;
68947;SDS011;55996;49.546;7.400;2024-01-30T01:57:52;17.77;;;11.60;;
68947;SDS011;55996;49.546;7.400;2024-01-30T02:00:18;16.10;;;11.07;;
68947;SDS011;55996;49.546;7.400;2024-01-30T02:02:45;14.73;;;11.17;;
68947;SDS011;55996;49.546;7.400;2024-01-30T02:05:12;17.63;;;11.40;;
68947;SDS011;55996;49.546;7.400;2024-01-30T02:07:37;16.93;;;11.37;;
68947;SDS011;55996;49.546;7.400;2024-01-30T02:10:03;16.47;;;11.67;;
68947;SDS011;55996;49.546;7.400;2024-01-30T02:12:29;16.77;;;12.33;;
68947;SDS011;55996;49.546;7.400;2024-01-30T02:14:55;15.63;;;11.57;;
68947;SDS011;55996;49.546;7.400;2024-01-30T02:17:20;17.93;;;11.63;;
68947;SDS011;55996;49.546;7.400;2024-01-30T02:19:46;19.23;;;12.57;;
68947;SDS011;55996;49.546;7.400;2024-01-30T02:22:11;14.30;;;11.80;;
68947;SDS011;55996;49.546;7.400;2024-01-30T02:24:38;18.13;;;12.17;;
68947;SDS011;55996;49.546;7.400;2024-01-30T02:27:03;19.47;;;13.27;;
68947;SDS011;55996;49.546;7.400;2024-01-30T02:29:29;17.40;;;12.33;;
68947;SDS011;55996;49.546;7.400;2024-01-30T02:31:54;16.43;;;12.20;;
68947;SDS011;55996;49.546;7.400;2024-01-30T02:34:20;17.63;;;12.20;;
68947;SDS011;55996;49.546;7.400;2024-01-30T02:36:46;14.13;;;11.30;;
68947;SDS011;55996;49.546;7.400;2024-01-30T02:39:11;17.70;;;12.07;;
68947;SDS011;55996;49.546;7.400;2024-01-30T02:41:36;18.63;;;11.53;;
68947;SDS011;55996;49.546;7.400;2024-01-30T02:44:02;17.83;;;12.30;;
68947;SDS011;55996;49.546;7.400;2024-01-30T02:46:28;15.20;;;11.57;;
68947;SDS011;55996;49.546;7.400;2024-01-30T02:48:54;15.70;;;11.70;;
68947;SDS011;55996;49.546;7.400;2024-01-30T02:51:19;17.67;;;12.53;;
68947;SDS011;55996;49.546;7.400;2024-01-30T02:53:45;16.27;;;12.83;;
68947;SDS011;55996;49.546;7.400;2024-01-30T02:56:10;19.20;;;12.93;;
68947;SDS011;55996;49.546;7.400;2024-01-30T02:58:37;16.43;;;12.60;;
68947;SDS011;55996;49.546;7.400;2024-01-30T03:01:02;16.90;;;12.67;;
68947;SDS011;55996;49.546;7.400;2024-01-30T03:03:28;18.50;;;12.47;;
68947;SDS011;55996;49.546;7.400;2024-01-30T03:05:53;16.93;;;11.97;;
68947;SDS011;55996;49.546;7.400;2024-01-30T03:08:19;16.57;;;11.10;;
68947;SDS011;55996;49.546;7.400;2024-01-30T03:10:44;15.10;;;12.13;;
68947;SDS011;55996;49.546;7.400;2024-01-30T03:13:10;18.77;;;11.17;;
68947;SDS011;55996;49.546;7.400;2024-01-30T03:15:35;18.43;;;11.37;;
68947;SDS011;55996;49.546;7.400;2024-01-30T03:18:01;16.83;;;10.33;;
68947;SDS011;55996;49.546;7.400;2024-01-30T03:20:28;17.43;;;12.00;;
68947;SDS011;55996;49.546;7.400;2024-01-30T03:22:55;15.97;;;11.13;;
68947;SDS011;55996;49.546;7.400;2024-01-30T03:25:21;15.97;;;11.57;;
68947;SDS011;55996;49.546;7.400;2024-01-30T03:27:46;15.77;;;11.27;;
68947;SDS011;55996;49.546;7.400;2024-01-30T03:30:12;15.63;;;11.53;;
68947;SDS011;55996;49.546;7.400;2024-01-30T03:32:37;17.00;;;12.03;;
68947;SDS011;55996;49.546;7.400;2024-01-30T03:35:03;17.97;;;12.63;;
68947;SDS011;55996;49.546;7.400;2024-01-30T03:37:29;18.97;;;13.37;;
68947;SDS011;55996;49.546;7.400;2024-01-30T03:39:54;18.00;;;12.33;;
68947;SDS011;55996;49.546;7.400;2024-01-30T03:42:20;18.87;;;12.53;;
68947;SDS011;55996;49.546;7.400;2024-01-30T03:44:45;17.40;;;12.07;;
68947;SDS011;55996;49.546;7.400;2024-01-30T03:47:11;16.33;;;11.57;;
68947;SDS011;55996;49.546;7.400;2024-01-30T03:49:36;17.87;;;12.77;;
68947;SDS011;55996;49.546;7.400;2024-01-30T03:52:01;14.23;;;11.37;;
68947;SDS011;55996;49.546;7.400;2024-01-30T03:54:27;18.37;;;11.07;;
68947;SDS011;55996;49.546;7.400;2024-01-30T03:56:52;13.07;;;10.60;;
68947;SDS011;55996;49.546;7.400;2024-01-30T03:59:17;15.23;;;10.83;;
68947;SDS011;55996;49.546;7.400;2024-01-30T04:01:47;15.90;;;10.90;;
68947;SDS011;55996;49.546;7.400;2024-01-30T04:04:13;14.87;;;10.30;;
68947;SDS011;55996;49.546;7.400;2024-01-30T04:06:38;15.17;;;10.13;;
68947;SDS011;55996;49.546;7.400;2024-01-30T04:09:04;14.83;;;10.93;;
68947;SDS011;55996;49.546;7.400;2024-01-30T04:11:29;15.60;;;11.27;;
68947;SDS011;55996;49.546;7.400;2024-01-30T04:13:54;15.77;;;10.30;;
68947;SDS011;55996;49.546;7.400;2024-01-30T04:16:20;18.13;;;11.37;;
68947;SDS011;55996;49.546;7.400;2024-01-30T04:18:47;15.00;;;10.53;;
68947;SDS011;55996;49.546;7.400;2024-01-30T04:21:13;15.37;;;10.50;;
68947;SDS011;55996;49.546;7.400;2024-01-30T04:23:39;15.43;;;10.97;;
68947;SDS011;55996;49.546;7.400;2024-01-30T04:26:07;14.20;;;10.73;;
68947;SDS011;55996;49.546;7.400;2024-01-30T04:28:33;16.93;;;11.87;;
68947;SDS011;55996;49.546;7.400;2024-01-30T04:30:58;14.87;;;10.90;;
68947;SDS011;55996;49.546;7.400;2024-01-30T04:33:24;15.77;;;11.17;;
68947;SDS011;55996;49.546;7.400;2024-01-30T04:35:49;15.97;;;10.77;;
68947;SDS011;55996;49.546;7.400;2024-01-30T04:38:14;16.17;;;11.30;;
68947;SDS011;55996;49.546;7.400;2024-01-30T04:40:40;16.70;;;10.67;;
68947;SDS011;55996;49.546;7.400;2024-01-30T04:43:05;14.80;;;11.23;;
68947;SDS011;55996;49.546;7.400;2024-01-30T04:45:31;15.77;;;10.47;;
68947;SDS011;55996;49.546;7.400;2024-01-30T04:47:56;16.40;;;10.07;;
68947;SDS011;55996;49.546;7.400;2024-01-30T04:50:22;17.37;;;10.27;;
68947;SDS011;55996;49.546;7.400;2024-01-30T04:52:48;14.80;;;10.80;;
68947;SDS011;55996;49.546;7.400;2024-01-30T04:55:13;15.67;;;10.37;;
68947;SDS011;55996;49.546;7.400;2024-01-30T04:57:39;17.20;;;10.27;;
68947;SDS011;55996;49.546;7.400;2024-01-30T05:00:04;13.57;;;10.53;;
68947;SDS011;55996;49.546;7.400;2024-01-30T05:02:30;13.27;;;10.37;;
68947;SDS011;55996;49.546;7.400;2024-01-30T05:04:55;13.47;;;10.27;;
68947;SDS011;55996;49.546;7.400;2024-01-30T05:07:21;15.07;;;10.80;;
68947;SDS011;55996;49.546;7.400;2024-01-30T05:09:46;17.23;;;10.97;;
68947;SDS011;55996;49.546;7.400;2024-01-30T05:12:12;13.43;;;10.10;;
68947;SDS011;55996;49.546;7.400;2024-01-30T05:14:37;15.30;;;10.10;;
68947;SDS011;55996;49.546;7.400;2024-01-30T05:17:03;13.27;;;9.60;;
68947;SDS011;55996;49.546;7.400;2024-01-30T05:19:28;14.23;;;10.13;;
68947;SDS011;55996;49.546;7.400;2024-01-30T05:21:54;14.47;;;10.87;;
68947;SDS011;55996;49.546;7.400;2024-01-30T05:24:19;15.67;;;10.60;;
68947;SDS011;55996;49.546;7.400;2024-01-30T05:26:44;15.67;;;10.63;;
68947;SDS011;55996;49.546;7.400;2024-01-30T05:29:10;14.27;;;10.00;;
68947;SDS011;55996;49.546;7.400;2024-01-30T05:31:35;15.17;;;9.83;;
68947;SDS011;55996;49.546;7.400;2024-01-30T05:34:00;14.77;;;10.13;;
68947;SDS011;55996;49.546;7.400;2024-01-30T05:36:26;13.37;;;9.43;;
68947;SDS011;55996;49.546;7.400;2024-01-30T05:38:51;13.10;;;9.07;;
68947;SDS011;55996;49.546;7.400;2024-01-30T05:41:17;12.53;;;9.43;;
68947;SDS011;55996;49.546;7.400;2024-01-30T05:43:42;13.53;;;9.33;;
68947;SDS011;55996;49.546;7.400;2024-01-30T05:46:07;15.47;;;9.13;;
68947;SDS011;55996;49.546;7.400;2024-01-30T05:48:33;13.63;;;9.50;;
68947;SDS011;55996;49.546;7.400;2024-01-30T05:51:00;11.30;;;8.40;;
68947;SDS011;55996;49.546;7.400;2024-01-30T05:53:25;13.80;;;9.93;;
68947;SDS011;55996;49.546;7.400;2024-01-30T05:55:51;12.10;;;8.73;;
68947;SDS011;55996;49.546;7.400;2024-01-30T05:58:16;9.63;;;8.53;;
68947;SDS011;55996;49.546;7.400;2024-01-30T06:00:42;13.50;;;9.10;;
68947;SDS011;55996;49.546;7.400;2024-01-30T06:03:07;12.47;;;9.00;;
68947;SDS011;55996;49.546;7.400;2024-01-30T06:05:34;12.60;;;9.20;;
68947;SDS011;55996;49.546;7.400;2024-01-30T06:08:01;11.37;;;8.73;;
68947;SDS011;55996;49.546;7.400;2024-01-30T06:10:27;14.23;;;8.60;;
68947;SDS011;55996;49.546;7.400;2024-01-30T06:12:52;12.23;;;8.87;;
68947;SDS011;55996;49.546;7.400;2024-01-30T06:15:18;12.23;;;9.00;;
68947;SDS011;55996;49.546;7.400;2024-01-30T06:17:43;13.97;;;8.67;;
68947;SDS011;55996;49.546;7.400;2024-01-30T06:20:08;12.07;;;9.33;;
68947;SDS011;55996;49.546;7.400;2024-01-30T06:22:34;14.07;;;9.80;;
68947;SDS011;55996;49.546;7.400;2024-01-30T06:24:59;16.37;;;10.23;;
68947;SDS011;55996;49.546;7.400;2024-01-30T06:27:25;13.10;;;9.43;;
68947;SDS011;55996;49.546;7.400;2024-01-30T06:29:50;13.47;;;9.17;;
68947;SDS011;55996;49.546;7.400;2024-01-30T06:32:15;12.83;;;8.80;;
68947;SDS011;55996;49.546;7.400;2024-01-30T06:34:41;13.67;;;9.10;;
68947;SDS011;55996;49.546;7.400;2024-01-30T06:37:07;13.90;;;8.97;;
68947;SDS011;55996;49.546;7.400;2024-01-30T06:39:32;13.50;;;9.20;;
68947;SDS011;55996;49.546;7.400;2024-01-30T06:41:57;9.57;;;7.57;;
68947;SDS011;55996;49.546;7.400;2024-01-30T06:44:23;11.33;;;9.10;;
68947;SDS011;55996;49.546;7.400;2024-01-30T06:46:48;10.93;;;8.43;;
68947;SDS011;55996;49.546;7.400;2024-01-30T06:49:13;11.27;;;8.60;;
68947;SDS011;55996;49.546;7.400;2024-01-30T06:51:39;12.90;;;8.30;;
68947;SDS011;55996;49.546;7.400;2024-01-30T06:54:04;9.47;;;7.73;;
68947;SDS011;55996;49.546;7.400;2024-01-30T06:56:30;11.47;;;8.40;;
68947;SDS011;55996;49.546;7.400;2024-01-30T06:58:55;10.97;;;8.07;;
68947;SDS011;55996;49.546;7.400;2024-01-30T07:01:27;9.73;;;7.83;;
68947;SDS011;55996;49.546;7.400;2024-01-30T07:03:54;10.23;;;7.60;;
68947;SDS011;55996;49.546;7.400;2024-01-30T07:06:19;9.73;;;7.50;;
68947;SDS011;55996;49.546;7.400;2024-01-30T07:08:45;11.93;;;8.63;;
68947;SDS011;55996;49.546;7.400;2024-01-30T07:11:11;13.60;;;9.10;;
68947;SDS011;55996;49.546;7.400;2024-01-30T07:13:44;10.13;;;8.33;;
68947;SDS011;55996;49.546;7.400;2024-01-30T07:16:10;12.57;;;8.13;;
68947;SDS011;55996;49.546;7.400;2024-01-30T07:18:35;11.67;;;8.07;;
68947;SDS011;55996;49.546;7.400;2024-01-30T07:21:01;12.00;;;8.30;;
68947;SDS011;55996;49.546;7.400;2024-01-30T07:23:29;12.27;;;8.50;;
68947;SDS011;55996;49.546;7.400;2024-01-30T07:25:55;13.37;;;8.50;;
68947;SDS011;55996;49.546;7.400;2024-01-30T07:28:20;11.90;;;8.53;;
68947;SDS011;55996;49.546;7.400;2024-01-30T07:30:45;11.33;;;9.20;;
68947;SDS011;55996;49.546;7.400;2024-01-30T07:33:13;13.37;;;9.03;;
68947;SDS011;55996;49.546;7.400;2024-01-30T07:35:39;12.33;;;8.70;;
68947;SDS011;55996;49.546;7.400;2024-01-30T07:38:04;11.40;;;9.00;;
68947;SDS011;55996;49.546;7.400;2024-01-30T07:40:29;13.73;;;9.37;;
68947;SDS011;55996;49.546;7.400;2024-01-30T07:42:55;12.30;;;9.30;;
68947;SDS011;55996;49.546;7.400;2024-01-30T07:45:20;12.60;;;9.07;;
68947;SDS011;55996;49.546;7.400;2024-01-30T07:47:50;11.53;;;8.80;;
68947;SDS011;55996;49.546;7.400;2024-01-30T07:50:16;14.23;;;9.40;;
68947;SDS011;55996;49.546;7.400;2024-01-30T07:52:45;12.60;;;8.63;;
68947;SDS011;55996;49.546;7.400;2024-01-30T07:55:10;11.47;;;8.77;;
68947;SDS011;55996;49.546;7.400;2024-01-30T07:57:38;11.40;;;8.53;;
68947;SDS011;55996;49.546;7.400;2024-01-30T08:00:05;13.77;;;10.53;;
68947;SDS011;55996;49.546;7.400;2024-01-30T08:02:32;14.67;;;10.00;;
68947;SDS011;55996;49.546;7.400;2024-01-30T08:04:57;12.70;;;9.50;;
68947;SDS011;55996;49.546;7.400;2024-01-30T08:07:23;13.37;;;9.77;;
68947;SDS011;55996;49.546;7.400;2024-01-30T08:09:48;14.83;;;10.80;;
68947;SDS011;55996;49.546;7.400;2024-01-30T08:12:14;14.30;;;10.80;;
68947;SDS011;55996;49.546;7.400;2024-01-30T08:14:39;14.40;;;10.50;;
68947;SDS011;55996;49.546;7.400;2024-01-30T08:17:06;14.53;;;10.43;;
68947;SDS011;55996;49.546;7.400;2024-01-30T08:19:32;15.70;;;10.73;;
68947;SDS011;55996;49.546;7.400;2024-01-30T08:21:57;13.43;;;10.77;;
68947;SDS011;55996;49.546;7.400;2024-01-30T08:24:23;13.00;;;10.90;;
68947;SDS011;55996;49.546;7.400;2024-01-30T08:26:48;13.40;;;10.43;;
68947;SDS011;55996;49.546;7.400;2024-01-30T08:29:16;14.20;;;12.43;;
68947;SDS011;55996;49.546;7.400;2024-01-30T08:31:42;16.50;;;12.63;;
68947;SDS011;55996;49.546;7.400;2024-01-30T08:34:07;15.90;;;13.07;;
68947;SDS011;55996;49.546;7.400;2024-01-30T08:36:33;18.43;;;14.53;;
68947;SDS011;55996;49.546;7.400;2024-01-30T08:38:58;17.87;;;13.40;;
68947;SDS011;55996;49.546;7.400;2024-01-30T08:41:23;16.37;;;13.03;;
68947;SDS011;55996;49.546;7.400;2024-01-30T08:43:49;15.53;;;11.73;;
68947;SDS011;55996;49.546;7.400;2024-01-30T08:46:17;14.27;;;11.93;;
68947;SDS011;55996;49.546;7.400;2024-01-30T08:48:43;15.50;;;12.50;;
68947;SDS011;55996;49.546;7.400;2024-01-30T08:51:08;16.10;;;12.23;;
68947;SDS011;55996;49.546;7.400;2024-01-30T08:53:34;14.87;;;11.77;;
68947;SDS011;55996;49.546;7.400;2024-01-30T08:56:01;14.30;;;12.80;;
68947;SDS011;55996;49.546;7.400;2024-01-30T08:58:27;16.57;;;14.00;;
68947;SDS011;55996;49.546;7.400;2024-01-30T09:00:52;17.73;;;12.90;;
68947;SDS011;55996;49.546;7.400;2024-01-30T09:03:18;17.73;;;14.13;;
68947;SDS011;55996;49.546;7.400;2024-01-30T09:05:43;17.53;;;13.23;;
68947;SDS011;55996;49.546;7.400;2024-01-30T09:08:08;18.23;;;13.90;;
68947;SDS011;55996;49.546;7.400;2024-01-30T09:10:35;19.20;;;15.50;;
68947;SDS011;55996;49.546;7.400;2024-01-30T09:13:00;22.63;;;15.70;;
68947;SDS011;55996;49.546;7.400;2024-01-30T09:15:25;22.33;;;15.57;;
68947;SDS011;55996;49.546;7.400;2024-01-30T09:17:51;23.67;;;17.80;;
68947;SDS011;55996;49.546;7.400;2024-01-30T09:20:16;23.77;;;18.50;;
68947;SDS011;55996;49.546;7.400;2024-01-30T09:22:41;29.00;;;23.30;;
68947;SDS011;55996;49.546;7.400;2024-01-30T09:25:07;34.80;;;25.77;;
68947;SDS011;55996;49.546;7.400;2024-01-30T09:27:32;26.07;;;21.43;;
68947;SDS011;55996;49.546;7.400;2024-01-30T09:29:58;29.97;;;22.97;;
68947;SDS011;55996;49.546;7.400;2024-01-30T09:32:23;27.47;;;20.80;;
68947;SDS011;55996;49.546;7.400;2024-01-30T09:34:48;23.03;;;17.30;;
68947;SDS011;55996;49.546;7.400;2024-01-30T09:37:14;22.07;;;17.93;;
68947;SDS011;55996;49.546;7.400;2024-01-30T09:39:40;23.57;;;18.57;;
68947;SDS011;55996;49.546;7.400;2024-01-30T09:42:17;25.07;;;18.80;;
68947;SDS011;55996;49.546;7.400;2024-01-30T09:44:50;21.57;;;17.70;;
68947;SDS011;55996;49.546;7.400;2024-01-30T09:47:17;22.50;;;17.30;;
68947;SDS011;55996;49.546;7.400;2024-01-30T09:49:43;20.97;;;16.87;;
68947;SDS011;55996;49.546;7.400;2024-01-30T09:52:08;23.13;;;16.67;;
68947;SDS011;55996;49.546;7.400;2024-01-30T09:54:34;18.77;;;15.33;;
68947;SDS011;55996;49.546;7.400;2024-01-30T09:57:00;21.37;;;17.07;;
68947;SDS011;55996;49.546;7.400;2024-01-30T09:59:26;20.20;;;16.37;;
68947;SDS011;55996;49.546;7.400;2024-01-30T10:01:51;21.53;;;16.90;;
68947;SDS011;55996;49.546;7.400;2024-01-30T10:04:17;22.33;;;16.97;;
68947;SDS011;55996;49.546;7.400;2024-01-30T10:06:43;23.23;;;17.40;;
68947;SDS011;55996;49.546;7.400;2024-01-30T10:09:08;20.63;;;16.90;;
68947;SDS011;55996;49.546;7.400;2024-01-30T10:11:34;21.30;;;16.80;;
68947;SDS011;55996;49.546;7.400;2024-01-30T10:14:00;20.90;;;16.97;;
68947;SDS011;55996;49.546;7.400;2024-01-30T10:16:26;19.57;;;14.93;;
68947;SDS011;55996;49.546;7.400;2024-01-30T10:18:51;16.63;;;13.70;;
68947;SDS011;55996;49.546;7.400;2024-01-30T10:21:17;18.17;;;11.90;;
68947;SDS011;55996;49.546;7.400;2024-01-30T10:23:43;16.20;;;11.50;;
68947;SDS011;55996;49.546;7.400;2024-01-30T10:26:09;13.37;;;9.43;;
68947;SDS011;55996;49.546;7.400;2024-01-30T10:28:35;10.90;;;8.90;;
68947;SDS011;55996;49.546;7.400;2024-01-30T10:31:01;12.93;;;8.97;;
68947;SDS011;55996;49.546;7.400;2024-01-30T10:33:28;12.77;;;8.83;;
68947;SDS011;55996;49.546;7.400;2024-01-30T10:35:55;9.77;;;7.70;;
68947;SDS011;55996;49.546;7.400;2024-01-30T10:38:31;13.53;;;7.50;;
68947;SDS011;55996;49.546;7.400;2024-01-30T10:40:58;14.07;;;8.30;;
68947;SDS011;55996;49.546;7.400;2024-01-30T10:43:31;9.10;;;7.30;;
68947;SDS011;55996;49.546;7.400;2024-01-30T10:46:01;11.07;;;7.83;;
68947;SDS011;55996;49.546;7.400;2024-01-30T10:48:39;10.00;;;7.87;;
68947;SDS011;55996;49.546;7.400;2024-01-30T10:51:09;11.60;;;7.90;;
68947;SDS011;55996;49.546;7.400;2024-01-30T10:53:35;10.93;;;7.77;;
68947;SDS011;55996;49.546;7.400;2024-01-30T10:56:02;8.67;;;7.50;;
68947;SDS011;55996;49.546;7.400;2024-01-30T10:58:29;11.37;;;7.20;;
68947;SDS011;55996;49.546;7.400;2024-01-30T11:00:55;8.90;;;7.13;;
68947;SDS011;55996;49.546;7.400;2024-01-30T11:03:21;9.80;;;7.57;;
68947;SDS011;55996;49.546;7.400;2024-01-30T11:05:50;8.63;;;7.00;;
68947;SDS011;55996;49.546;7.400;2024-01-30T11:08:22;9.93;;;7.03;;
68947;SDS011;55996;49.546;7.400;2024-01-30T11:10:49;11.10;;;7.33;;
68947;SDS011;55996;49.546;7.400;2024-01-30T11:13:15;12.67;;;7.50;;
68947;SDS011;55996;49.546;7.400;2024-01-30T11:15:41;9.43;;;7.23;;
68947;SDS011;55996;49.546;7.400;2024-01-30T11:18:06;9.90;;;7.83;;
68947;SDS011;55996;49.546;7.400;2024-01-30T11:20:32;10.13;;;7.53;;
68947;SDS011;55996;49.546;7.400;2024-01-30T11:22:58;10.77;;;8.30;;
68947;SDS011;55996;49.546;7.400;2024-01-30T11:25:27;11.07;;;7.13;;
68947;SDS011;55996;49.546;7.400;2024-01-30T11:27:53;10.83;;;7.57;;
68947;SDS011;55996;49.546;7.400;2024-01-30T11:30:26;9.33;;;7.20;;
68947;SDS011;55996;49.546;7.400;2024-01-30T11:35:36;9.83;;;7.67;;
68947;SDS011;55996;49.546;7.400;2024-01-30T11:38:06;9.53;;;7.60;;
68947;SDS011;55996;49.546;7.400;2024-01-30T11:40:34;9.53;;;7.03;;
68947;SDS011;55996;49.546;7.400;2024-01-30T11:43:01;9.63;;;7.30;;
68947;SDS011;55996;49.546;7.400;2024-01-30T11:45:29;9.63;;;7.57;;
68947;SDS011;55996;49.546;7.400;2024-01-30T11:47:55;9.83;;;7.47;;
68947;SDS011;55996;49.546;7.400;2024-01-30T11:50:21;11.37;;;7.47;;
68947;SDS011;55996;49.546;7.400;2024-01-30T11:52:47;10.20;;;7.03;;
68947;SDS011;55996;49.546;7.400;2024-01-30T11:55:13;8.93;;;7.23;;
68947;SDS011;55996;49.546;7.400;2024-01-30T11:57:39;14.80;;;7.37;;
68947;SDS011;55996;49.546;7.400;2024-01-30T12:00:05;9.70;;;7.33;;
68947;SDS011;55996;49.546;7.400;2024-01-30T12:02:35;10.27;;;7.37;;
68947;SDS011;55996;49.546;7.400;2024-01-30T12:05:08;9.90;;;7.50;;
68947;SDS011;55996;49.546;7.400;2024-01-30T12:07:34;11.07;;;6.87;;
68947;SDS011;55996;49.546;7.400;2024-01-30T12:10:00;9.03;;;7.33;;
68947;SDS011;55996;49.546;7.400;2024-01-30T12:12:26;11.70;;;7.57;;
68947;SDS011;55996;49.546;7.400;2024-01-30T12:14:52;10.87;;;7.67;;
68947;SDS011;55996;49.546;7.400;2024-01-30T12:17:28;8.30;;;6.87;;
68947;SDS011;55996;49.546;7.400;2024-01-30T12:20:07;9.43;;;6.90;;
68947;SDS011;55996;49.546;7.400;2024-01-30T12:22:38;7.43;;;6.60;;
68947;SDS011;55996;49.546;7.400;2024-01-30T12:25:12;9.30;;;7.77;;
68947;SDS011;55996;49.546;7.400;2024-01-30T12:27:46;10.17;;;6.73;;
68947;SDS011;55996;49.546;7.400;2024-01-30T12:30:16;7.93;;;6.57;;
68947;SDS011;55996;49.546;7.400;2024-01-30T12:32:46;10.67;;;6.97;;
68947;SDS011;55996;49.546;7.400;2024-01-30T12:37:39;9.17;;;7.27;;
68947;SDS011;55996;49.546;7.400;2024-01-30T12:40:07;10.77;;;7.30;;
68947;SDS011;55996;49.546;7.400;2024-01-30T12:42:33;9.50;;;6.97;;
68947;SDS011;55996;49.546;7.400;2024-01-30T12:44:58;12.27;;;6.93;;
68947;SDS011;55996;49.546;7.400;2024-01-30T12:47:24;7.50;;;6.53;;
68947;SDS011;55996;49.546;7.400;2024-01-30T12:49:50;9.43;;;6.70;;
68947;SDS011;55996;49.546;7.400;2024-01-30T12:52:18;10.23;;;7.10;;
68947;SDS011;55996;49.546;7.400;2024-01-30T12:54:44;13.83;;;7.40;;
68947;SDS011;55996;49.546;7.400;2024-01-30T12:57:10;10.20;;;6.23;;
68947;SDS011;55996;49.546;7.400;2024-01-30T12:59:35;9.80;;;7.20;;
68947;SDS011;55996;49.546;7.400;2024-01-30T13:02:01;11.47;;;7.07;;
68947;SDS011;55996;49.546;7.400;2024-01-30T13:04:28;8.77;;;7.30;;
68947;SDS011;55996;49.546;7.400;2024-01-30T13:06:53;9.27;;;6.83;;
68947;SDS011;55996;49.546;7.400;2024-01-30T13:09:19;9.17;;;7.07;;
68947;SDS011;55996;49.546;7.400;2024-01-30T13:11:44;9.87;;;6.33;;
68947;SDS011;55996;49.546;7.400;2024-01-30T13:14:10;8.10;;;6.63;;
68947;SDS011;55996;49.546;7.400;2024-01-30T13:16:35;8.77;;;6.93;;
68947;SDS011;55996;49.546;7.400;2024-01-30T13:19:01;8.67;;;6.80;;
68947;SDS011;55996;49.546;7.400;2024-01-30T13:21:27;10.13;;;7.20;;
68947;SDS011;55996;49.546;7.400;2024-01-30T13:23:53;8.60;;;6.90;;
68947;SDS011;55996;49.546;7.400;2024-01-30T13:26:19;10.80;;;7.40;;
68947;SDS011;55996;49.546;7.400;2024-01-30T13:28:45;58.93;;;34.40;;
68947;SDS011;55996;49.546;7.400;2024-01-30T13:31:11;11.07;;;8.57;;
68947;SDS011;55996;49.546;7.400;2024-01-30T13:33:37;8.83;;;7.50;;
68947;SDS011;55996;49.546;7.400;2024-01-30T13:36:02;8.77;;;7.07;;
68947;SDS011;55996;49.546;7.400;2024-01-30T13:38:28;8.70;;;6.83;;
68947;SDS011;55996;49.546;7.400;2024-01-30T13:40:53;8.77;;;7.50;;
68947;SDS011;55996;49.546;7.400;2024-01-30T13:43:19;9.63;;;7.67;;
68947;SDS011;55996;49.546;7.400;2024-01-30T13:45:44;10.40;;;7.33;;
68947;SDS011;55996;49.546;7.400;2024-01-30T13:48:11;8.53;;;7.07;;
68947;SDS011;55996;49.546;7.400;2024-01-30T13:50:37;9.57;;;7.43;;
68947;SDS011;55996;49.546;7.400;2024-01-30T13:53:02;10.73;;;6.47;;
68947;SDS011;55996;49.546;7.400;2024-01-30T13:55:29;9.53;;;7.90;;
68947;SDS011;55996;49.546;7.400;2024-01-30T13:57:54;11.13;;;7.43;;
68947;SDS011;55996;49.546;7.400;2024-01-30T14:00:21;9.83;;;7.27;;
68947;SDS011;55996;49.546;7.400;2024-01-30T14:02:47;10.83;;;7.17;;
68947;SDS011;55996;49.546;7.400;2024-01-30T14:05:12;10.73;;;7.13;;
68947;SDS011;55996;49.546;7.400;2024-01-30T14:07:39;11.73;;;7.63;;
68947;SDS011;55996;49.546;7.400;2024-01-30T14:10:05;12.47;;;7.33;;
68947;SDS011;55996;49.546;7.400;2024-01-30T14:12:31;12.50;;;7.60;;
68947;SDS011;55996;49.546;7.400;2024-01-30T14:14:56;9.77;;;7.13;;
68947;SDS011;55996;49.546;7.400;2024-01-30T14:17:22;10.00;;;7.43;;
68947;SDS011;55996;49.546;7.400;2024-01-30T14:19:47;9.17;;;7.00;;
68947;SDS011;55996;49.546;7.400;2024-01-30T14:22:12;7.87;;;6.00;;
68947;SDS011;55996;49.546;7.400;2024-01-30T14:24:38;11.27;;;7.03;;
68947;SDS011;55996;49.546;7.400;2024-01-30T14:27:03;11.47;;;6.70;;